Terminal Aerodrome Forecast
Issued by NWS Cleveland, OH

Home | Current Version | Previous Version | Graphics & Text | Print | Product List | Glossary On
Versions: 1 2 3 4 5 6 7 8 9 10 11 12 13
000
FTUS41 KCLE 231800 AAA
TAFTOL
TAF AMD
KTOL 231858Z 2319/2418 36010KT P6SM SCT025 OVC035
      TEMPO 2319/2322 BKN025
     FM232300 36010KT P6SM BKN035
     FM240100 36008KT P6SM SCT035
     FM240300 02006KT P6SM FEW035=

USA.gov is the U.S. government's official web portal to all federal, state and local government web resources and services.